Time;durP1;ratioP1;P1;durP2;ratioP2;P2;SDS_P1;SDS_P2;PMS_P1;PMS_P2;Temp;Humidity;BMP_temperature;BMP_pressure;BME280_temperature;BME280_humidity;BME280_pressure;Samples;Min_cycle;Max_cycle;Signal;HPM_P1;HPM_P2
2023/07/31 00:02:14;;;;;;;2.80;2.00;;;16.30;99.90;;;;;;4986102;28;20442;-65
2023/07/31 00:04:42;;;;;;;8.20;2.80;;;16.20;99.90;;;;;;4983651;28;20471;-66
2023/07/31 00:07:12;;;;;;;4.33;2.20;;;16.20;99.90;;;;;;4967004;28;20502;-66
2023/07/31 00:09:40;;;;;;;3.93;2.30;;;16.20;99.90;;;;;;4980115;28;20445;-65
2023/07/31 00:12:08;;;;;;;2.87;2.27;;;16.10;99.90;;;;;;4985897;28;20490;-65
2023/07/31 00:14:36;;;;;;;2.50;2.00;;;16.10;99.90;;;;;;4978867;28;20468;-66
2023/07/31 00:17:05;;;;;;;4.50;2.30;;;16.10;99.90;;;;;;4986640;28;20447;-65
2023/07/31 00:19:33;;;;;;;2.83;2.00;;;16.00;99.90;;;;;;4977824;28;20455;-65
2023/07/31 00:22:01;;;;;;;4.67;2.10;;;16.00;99.90;;;;;;4972658;28;20471;-65
2023/07/31 00:24:30;;;;;;;7.70;2.77;;;16.10;99.90;;;;;;4970692;28;20900;-65
2023/07/31 00:26:58;;;;;;;2.47;1.87;;;16.10;99.90;;;;;;4972928;28;20541;-66
2023/07/31 00:29:26;;;;;;;2.83;2.23;;;16.00;99.90;;;;;;4971332;28;20450;-65
2023/07/31 00:31:54;;;;;;;2.63;2.00;;;16.10;99.90;;;;;;4972111;28;21017;-65
2023/07/31 00:34:22;;;;;;;2.80;2.37;;;16.00;99.90;;;;;;4979751;28;20489;-65
2023/07/31 00:36:50;;;;;;;3.17;2.50;;;16.00;99.90;;;;;;4994067;28;20455;-65
2023/07/31 00:39:17;;;;;;;5.87;2.80;;;16.10;99.90;;;;;;4990771;28;21009;-66
2023/07/31 00:41:47;;;;;;;6.03;2.57;;;16.10;99.90;;;;;;4990608;28;20486;-66
2023/07/31 00:44:15;;;;;;;6.57;2.70;;;16.00;99.90;;;;;;4989909;28;20496;-65
2023/07/31 00:46:43;;;;;;;3.67;2.33;;;16.00;99.90;;;;;;4990784;28;20550;-65
2023/07/31 00:49:12;;;;;;;3.67;2.33;;;15.90;99.90;;;;;;4991140;28;21113;-65
2023/07/31 00:51:40;;;;;;;6.27;2.80;;;15.90;99.90;;;;;;4993311;28;20512;-65
2023/07/31 00:54:09;;;;;;;3.47;2.90;;;15.80;99.90;;;;;;5000883;28;20464;-64
2023/07/31 00:56:37;;;;;;;4.17;2.83;;;15.80;99.90;;;;;;4992181;28;20455;-65
2023/07/31 00:59:07;;;;;;;3.13;2.30;;;15.80;99.90;;;;;;4992310;28;20447;-65
2023/07/31 01:01:35;;;;;;;4.07;2.50;;;15.60;99.90;;;;;;4992613;28;20884;-65
2023/07/31 01:04:03;;;;;;;6.23;2.37;;;15.50;99.90;;;;;;4991239;28;20501;-65
2023/07/31 01:06:37;;;;;;;4.30;2.10;;;15.50;99.90;;;;;;4992419;28;20446;-65
2023/07/31 01:09:12;;;;;;;5.73;2.73;;;15.50;99.90;;;;;;4992472;28;20479;-65
2023/07/31 01:11:52;;;;;;;6.47;2.20;;;15.40;99.90;;;;;;4976392;28;20535;-65
2023/07/31 01:14:22;;;;;;;3.40;2.30;;;15.40;99.90;;;;;;4970669;28;20469;-66
2023/07/31 01:16:50;;;;;;;3.00;2.57;;;15.40;99.90;;;;;;4972623;28;20500;-65
2023/07/31 01:19:22;;;;;;;4.07;2.50;;;15.30;99.90;;;;;;4972239;28;20483;-65
2023/07/31 01:22:15;;;;;;;2.73;2.23;;;15.40;99.90;;;;;;4983014;28;22021;-65
2023/07/31 01:24:55;;;;;;;4.47;2.70;;;15.40;99.90;;;;;;4989768;28;20513;-65
2023/07/31 01:27:30;;;;;;;3.33;2.20;;;15.40;99.90;;;;;;4992129;28;20445;-65
2023/07/31 01:30:10;;;;;;;3.13;2.10;;;15.30;99.90;;;;;;4991398;28;20479;-65
2023/07/31 01:32:41;;;;;;;4.40;2.10;;;15.30;99.90;;;;;;4989907;28;20492;-65
2023/07/31 01:35:09;;;;;;;2.63;1.87;;;15.30;99.90;;;;;;4976889;28;20522;-65
2023/07/31 01:37:37;;;;;;;5.37;1.77;;;15.40;99.90;;;;;;4976226;28;20445;-65
2023/07/31 01:40:07;;;;;;;9.70;2.50;;;15.40;99.90;;;;;;4972396;28;20536;-65
2023/07/31 01:42:36;;;;;;;2.90;2.40;;;15.50;99.90;;;;;;4970937;28;20444;-65
2023/07/31 01:45:05;;;;;;;5.13;2.67;;;15.60;99.90;;;;;;4971975;28;20927;-65
2023/07/31 01:47:32;;;;;;;3.43;2.13;;;15.60;99.90;;;;;;4972198;28;20474;-65
2023/07/31 01:50:00;;;;;;;3.17;1.90;;;15.80;99.90;;;;;;4972532;28;20829;-65
2023/07/31 01:52:29;;;;;;;3.43;2.23;;;15.80;99.90;;;;;;4972098;28;20479;-65
2023/07/31 01:54:58;;;;;;;3.57;2.03;;;15.80;99.90;;;;;;4972218;28;20458;-65
2023/07/31 01:57:26;;;;;;;3.87;2.23;;;15.80;99.90;;;;;;4972004;28;20450;-65
2023/07/31 01:59:55;;;;;;;4.37;2.30;;;15.80;99.90;;;;;;4972434;28;20868;-65
2023/07/31 02:02:23;;;;;;;2.60;2.20;;;15.70;99.90;;;;;;4971066;28;20547;-65
2023/07/31 02:04:51;;;;;;;3.70;2.00;;;15.70;99.90;;;;;;4971819;28;21161;-65
2023/07/31 02:07:19;;;;;;;2.87;2.37;;;15.50;99.90;;;;;;4990052;28;20514;-66
2023/07/31 02:09:47;;;;;;;3.57;2.17;;;15.50;99.90;;;;;;4991027;28;20454;-65
2023/07/31 02:12:15;;;;;;;3.30;1.87;;;15.40;99.90;;;;;;4990692;28;20489;-64
2023/07/31 02:14:43;;;;;;;2.90;2.10;;;15.30;99.90;;;;;;4990413;28;20459;-65
2023/07/31 02:17:13;;;;;;;4.40;2.30;;;15.20;99.90;;;;;;4986108;28;20468;-65
2023/07/31 02:19:40;;;;;;;3.27;2.37;;;15.20;99.90;;;;;;4971722;28;20542;-64
2023/07/31 02:22:08;;;;;;;2.87;2.10;;;15.10;99.90;;;;;;4971259;28;20499;-65
2023/07/31 02:24:36;;;;;;;2.90;2.40;;;15.20;99.90;;;;;;4986142;28;20464;-65
2023/07/31 02:27:05;;;;;;;4.90;2.33;;;15.20;99.90;;;;;;4990500;28;20537;-65
2023/07/31 02:29:33;;;;;;;6.30;2.63;;;15.30;99.90;;;;;;4990131;28;20454;-65
2023/07/31 02:32:01;;;;;;;2.90;2.17;;;15.30;99.90;;;;;;4978807;28;20869;-65
2023/07/31 02:34:30;;;;;;;4.50;3.43;;;15.30;99.90;;;;;;4971004;28;20575;-65
2023/07/31 02:36:58;;;;;;;4.30;2.63;;;15.20;99.90;;;;;;4970886;28;20960;-65
2023/07/31 02:39:26;;;;;;;4.30;2.40;;;15.30;99.90;;;;;;4971274;28;20443;-66
2023/07/31 02:41:54;;;;;;;3.20;2.10;;;15.30;99.90;;;;;;4970464;28;20485;-65
2023/07/31 02:44:22;;;;;;;2.90;2.50;;;15.30;99.90;;;;;;4970553;28;20474;-65
2023/07/31 02:46:50;;;;;;;3.37;2.23;;;15.20;99.90;;;;;;4988486;28;20452;-65
2023/07/31 02:49:18;;;;;;;3.47;2.77;;;15.30;99.90;;;;;;4989862;28;20454;-65
2023/07/31 02:51:47;;;;;;;6.10;2.80;;;15.30;99.90;;;;;;4994864;28;20953;-65
2023/07/31 02:54:15;;;;;;;4.13;2.67;;;15.30;99.90;;;;;;4992806;28;20491;-65
2023/07/31 02:56:43;;;;;;;5.20;2.67;;;15.40;99.90;;;;;;4992389;28;20478;-65
2023/07/31 02:59:11;;;;;;;2.13;1.87;;;15.50;99.90;;;;;;4986893;28;20446;-65
2023/07/31 03:01:39;;;;;;;2.87;1.90;;;15.50;99.90;;;;;;4971247;28;20445;-65
2023/07/31 03:04:07;;;;;;;2.67;2.37;;;15.50;99.90;;;;;;5000902;28;20452;-64
2023/07/31 03:06:35;;;;;;;3.73;2.10;;;15.50;99.90;;;;;;5009404;28;20451;-65
2023/07/31 03:09:05;;;;;;;4.90;3.33;;;15.60;99.90;;;;;;5009879;28;20509;-65
2023/07/31 03:11:33;;;;;;;6.03;2.30;;;15.50;99.90;;;;;;5010071;28;20445;-65
2023/07/31 03:14:01;;;;;;;4.63;2.50;;;15.50;99.90;;;;;;4997731;28;20482;-65
2023/07/31 03:16:29;;;;;;;3.93;2.47;;;15.50;99.90;;;;;;4989926;28;20454;-64
2023/07/31 03:18:57;;;;;;;2.33;1.73;;;15.50;99.90;;;;;;4989776;28;21088;-64
2023/07/31 03:21:25;;;;;;;5.03;2.20;;;15.40;99.90;;;;;;4990102;28;20831;-65
2023/07/31 03:23:53;;;;;;;3.17;1.80;;;15.50;99.90;;;;;;4988986;28;20499;-65
2023/07/31 03:26:22;;;;;;;4.20;2.67;;;15.50;99.90;;;;;;4990373;28;20446;-65
2023/07/31 03:28:50;;;;;;;4.00;2.80;;;15.50;99.90;;;;;;4973680;28;20518;-65
2023/07/31 03:31:18;;;;;;;4.43;2.50;;;15.60;99.90;;;;;;4971065;28;20535;-65
2023/07/31 03:33:46;;;;;;;3.90;2.23;;;15.60;99.90;;;;;;4969416;28;20484;-65
2023/07/31 03:36:14;;;;;;;3.37;2.33;;;15.60;99.90;;;;;;4970974;28;20534;-65
2023/07/31 03:38:42;;;;;;;2.90;2.40;;;15.50;99.90;;;;;;4970414;28;20451;-64
2023/07/31 03:41:10;;;;;;;4.30;2.80;;;15.50;99.90;;;;;;4972881;28;20459;-64
2023/07/31 03:43:39;;;;;;;4.80;2.27;;;15.50;99.90;;;;;;4981539;28;20557;-65
2023/07/31 03:46:07;;;;;;;3.13;2.53;;;15.40;99.90;;;;;;4970384;28;20463;-64
2023/07/31 03:48:35;;;;;;;3.00;2.27;;;15.30;99.90;;;;;;4970313;28;20459;-64
2023/07/31 03:51:03;;;;;;;3.60;2.33;;;15.20;99.90;;;;;;4977200;28;20931;-65
2023/07/31 03:53:31;;;;;;;2.50;2.30;;;15.30;99.90;;;;;;4991128;28;20559;-65
2023/07/31 03:55:59;;;;;;;2.90;1.83;;;15.20;99.90;;;;;;4994093;28;20935;-65
2023/07/31 03:58:27;;;;;;;5.60;2.30;;;15.10;99.90;;;;;;4993681;28;20530;-65
2023/07/31 04:00:56;;;;;;;3.87;3.13;;;15.20;99.90;;;;;;4993958;28;20443;-65
2023/07/31 04:03:24;;;;;;;6.37;2.00;;;15.20;99.90;;;;;;4992578;28;20471;-65
2023/07/31 04:05:52;;;;;;;4.00;2.30;;;15.20;99.90;;;;;;4981034;28;20950;-65
2023/07/31 04:08:20;;;;;;;6.30;2.37;;;15.30;99.90;;;;;;4974481;28;20860;-65
2023/07/31 04:10:48;;;;;;;5.67;2.33;;;15.30;99.90;;;;;;4973996;28;20456;-64
2023/07/31 04:13:16;;;;;;;3.80;2.60;;;15.40;99.90;;;;;;4973057;28;20507;-65
2023/07/31 04:15:49;;;;;;;2.20;1.97;;;15.40;99.90;;;;;;4974043;28;20472;-65
2023/07/31 04:18:19;;;;;;;4.70;2.60;;;15.40;99.90;;;;;;4974278;28;20455;-65
2023/07/31 04:20:47;;;;;;;2.60;2.30;;;15.40;99.90;;;;;;4993216;28;20892;-65
2023/07/31 04:23:14;;;;;;;4.17;2.27;;;15.50;99.90;;;;;;4992304;28;20545;-65
2023/07/31 04:25:42;;;;;;;2.50;2.30;;;15.60;99.90;;;;;;4993452;28;20537;-65
2023/07/31 04:28:10;;;;;;;4.17;2.80;;;15.70;99.90;;;;;;4993066;28;20451;-65
2023/07/31 04:30:40;;;;;;;6.77;3.90;;;15.60;99.90;;;;;;4993553;28;20545;-64
2023/07/31 04:33:08;;;;;;;5.50;2.87;;;15.70;99.90;;;;;;4986246;28;20534;-65
2023/07/31 04:35:37;;;;;;;5.30;2.27;;;15.80;99.90;;;;;;4973905;28;20968;-64
2023/07/31 04:38:05;;;;;;;3.00;2.70;;;15.90;99.90;;;;;;4973703;28;20861;-65
2023/07/31 04:40:33;;;;;;;3.57;2.43;;;16.10;99.90;;;;;;4973384;28;20510;-65
2023/07/31 04:43:01;;;;;;;6.23;2.10;;;16.20;99.90;;;;;;4972597;28;20486;-65
2023/07/31 04:45:29;;;;;;;2.80;2.50;;;16.20;99.90;;;;;;4973337;28;20443;-64
2023/07/31 04:47:57;;;;;;;3.77;2.43;;;16.40;99.90;;;;;;4985209;28;20457;-65
2023/07/31 04:50:25;;;;;;;3.97;2.33;;;16.40;99.90;;;;;;4992812;28;20439;-65
2023/07/31 04:52:54;;;;;;;3.80;2.70;;;16.50;99.90;;;;;;4991645;28;20899;-65
2023/07/31 04:55:22;;;;;;;2.97;2.20;;;16.50;99.90;;;;;;4993071;28;20596;-65
2023/07/31 04:57:50;;;;;;;4.00;2.13;;;16.60;99.90;;;;;;4992647;28;20452;-65
2023/07/31 05:00:18;;;;;;;4.40;2.70;;;16.60;99.90;;;;;;4993082;28;20492;-65
2023/07/31 05:02:46;;;;;;;5.10;2.07;;;16.60;99.90;;;;;;4973270;28;20466;-65
2023/07/31 05:05:14;;;;;;;4.23;2.50;;;16.70;99.90;;;;;;4972504;28;20510;-65
2023/07/31 05:07:42;;;;;;;5.70;2.27;;;16.80;99.90;;;;;;4972825;28;20454;-66
2023/07/31 05:10:12;;;;;;;4.10;2.20;;;16.90;99.90;;;;;;4973506;28;20453;-65
2023/07/31 05:12:39;;;;;;;5.53;2.20;;;16.90;99.90;;;;;;4972158;28;20488;-65
2023/07/31 05:15:08;;;;;;;3.07;2.33;;;17.00;99.90;;;;;;4977326;28;20471;-66
2023/07/31 05:17:36;;;;;;;5.63;2.83;;;16.90;99.90;;;;;;4992956;28;20473;-66
2023/07/31 05:20:05;;;;;;;4.60;2.50;;;17.10;99.90;;;;;;4992691;28;20792;-66
2023/07/31 05:22:33;;;;;;;3.53;2.43;;;17.00;99.90;;;;;;4992331;28;20443;-64
2023/07/31 05:25:01;;;;;;;5.50;2.60;;;17.10;99.90;;;;;;4992816;28;20528;-64
2023/07/31 05:27:31;;;;;;;3.97;2.13;;;17.20;99.90;;;;;;4992709;28;20442;-66
2023/07/31 05:29:59;;;;;;;3.80;2.27;;;17.20;99.90;;;;;;4981546;28;20831;-66
2023/07/31 05:32:27;;;;;;;4.80;2.30;;;17.30;99.90;;;;;;4971528;28;20474;-64
2023/07/31 05:34:55;;;;;;;3.50;2.00;;;17.30;99.90;;;;;;4972773;28;20606;-65
2023/07/31 05:37:23;;;;;;;4.20;2.27;;;17.30;99.90;;;;;;4972859;28;20455;-65
2023/07/31 05:39:52;;;;;;;7.53;2.30;;;17.50;99.90;;;;;;4972841;28;21045;-65
2023/07/31 05:42:20;;;;;;;6.47;2.60;;;17.50;99.90;;;;;;4971948;28;20447;-65
2023/07/31 05:44:49;;;;;;;3.73;2.60;;;17.60;99.90;;;;;;4988901;28;20546;-65
2023/07/31 05:47:17;;;;;;;3.37;2.40;;;17.80;99.90;;;;;;4992182;28;20451;-65
2023/07/31 05:49:45;;;;;;;3.30;2.40;;;17.80;99.90;;;;;;4991986;28;20530;-65
2023/07/31 05:52:13;;;;;;;4.90;2.20;;;17.90;99.90;;;;;;4972880;28;20452;-66
2023/07/31 05:54:41;;;;;;;4.17;2.20;;;18.00;99.90;;;;;;4971035;28;20923;-66
2023/07/31 05:57:09;;;;;;;4.57;2.10;;;18.20;99.90;;;;;;4972440;28;20472;-65
2023/07/31 05:59:37;;;;;;;2.33;2.13;;;18.30;99.90;;;;;;4972150;28;20853;-65
2023/07/31 06:02:07;;;;;;;2.57;2.03;;;18.40;99.90;;;;;;4972109;28;20543;-65
2023/07/31 06:04:35;;;;;;;4.73;1.83;;;18.50;99.90;;;;;;4971478;28;20835;-65
2023/07/31 06:07:03;;;;;;;7.33;2.23;;;18.60;99.90;;;;;;4977974;28;20558;-64
2023/07/31 06:09:31;;;;;;;3.03;2.17;;;18.60;99.90;;;;;;4991590;28;20458;-65
2023/07/31 06:11:59;;;;;;;7.17;2.20;;;18.50;99.90;;;;;;4991482;28;20537;-64
2023/07/31 06:14:28;;;;;;;4.60;1.60;;;18.60;99.90;;;;;;4990722;28;20466;-65
2023/07/31 06:16:56;;;;;;;3.57;1.60;;;18.40;99.90;;;;;;4992085;28;20446;-65
2023/07/31 06:19:25;;;;;;;3.43;2.20;;;18.40;99.90;;;;;;4991728;28;20449;-64
2023/07/31 06:21:53;;;;;;;5.83;2.20;;;18.40;99.90;;;;;;4978806;28;20448;-64
2023/07/31 06:24:22;;;;;;;2.23;1.97;;;18.60;99.90;;;;;;4970415;28;20468;-63
2023/07/31 06:26:50;;;;;;;2.70;2.00;;;18.70;99.90;;;;;;4971917;28;21044;-62
2023/07/31 06:29:18;;;;;;;3.10;1.80;;;18.70;99.90;;;;;;4971552;28;20482;-64
2023/07/31 06:31:46;;;;;;;2.83;2.13;;;18.80;99.90;;;;;;4971797;28;20466;-64
2023/07/31 06:34:14;;;;;;;3.93;1.83;;;19.00;99.90;;;;;;4970154;28;20468;-68
2023/07/31 06:36:44;;;;;;;6.13;2.43;;;19.10;99.90;;;;;;4990030;28;20483;-65
2023/07/31 06:39:12;;;;;;;5.37;2.50;;;19.20;99.90;;;;;;4991170;28;20541;-66
2023/07/31 06:41:40;;;;;;;4.97;2.40;;;19.40;99.90;;;;;;4990629;28;20443;-65
2023/07/31 06:44:08;;;;;;;4.07;2.40;;;19.60;99.90;;;;;;4989615;28;20476;-67
2023/07/31 06:46:36;;;;;;;3.10;2.23;;;19.80;99.90;;;;;;4991332;28;20520;-65
2023/07/31 06:49:05;;;;;;;3.77;2.30;;;19.90;99.90;;;;;;4989713;28;20451;-68
2023/07/31 06:51:34;;;;;;;3.20;2.00;;;19.80;99.90;;;;;;5006233;28;20473;-68
2023/07/31 06:54:03;;;;;;;6.80;2.53;;;19.80;99.90;;;;;;4990285;28;20466;-66
2023/07/31 06:56:31;;;;;;;3.17;1.97;;;19.90;99.90;;;;;;4990834;28;20577;-67
2023/07/31 06:58:59;;;;;;;6.37;2.17;;;20.10;99.90;;;;;;4990445;28;20442;-67
2023/07/31 07:01:27;;;;;;;4.13;2.10;;;20.40;99.90;;;;;;4990811;28;20482;-66
2023/07/31 07:03:55;;;;;;;2.90;1.90;;;20.60;99.90;;;;;;4977220;28;20467;-64
2023/07/31 07:06:24;;;;;;;3.73;2.00;;;20.80;99.90;;;;;;4971530;28;20523;-67
2023/07/31 07:08:52;;;;;;;3.90;2.27;;;20.80;99.90;;;;;;4971073;28;20460;-67
2023/07/31 07:11:21;;;;;;;3.60;2.27;;;20.90;99.90;;;;;;4971347;28;20454;-65
2023/07/31 07:13:49;;;;;;;3.30;2.20;;;20.90;99.90;;;;;;4969809;28;20994;-66
2023/07/31 07:16:17;;;;;;;4.43;1.90;;;20.90;99.90;;;;;;4970779;28;20538;-62
2023/07/31 07:18:45;;;;;;;8.73;2.53;;;20.90;99.90;;;;;;4988908;28;20509;-62
2023/07/31 07:21:29;;;;;;;2.93;2.17;;;21.00;99.60;;;;;;4990568;28;20447;-66
2023/07/31 07:23:57;;;;;;;2.83;2.13;;;21.60;99.90;;;;;;4992332;28;20935;-66
2023/07/31 07:26:27;;;;;;;5.77;2.30;;;22.10;97.90;;;;;;4993907;28;20443;-66
2023/07/31 07:28:54;;;;;;;2.90;2.30;;;22.40;98.70;;;;;;4992028;28;20526;-68
2023/07/31 07:31:22;;;;;;;4.30;2.10;;;22.10;96.10;;;;;;4984002;28;20452;-67
2023/07/31 07:33:50;;;;;;;2.63;2.10;;;22.30;96.60;;;;;;4969713;28;20558;-67
2023/07/31 07:36:18;;;;;;;4.30;2.47;;;22.30;96.50;;;;;;4970825;28;20515;-65
2023/07/31 07:38:46;;;;;;;4.63;2.13;;;22.20;95.80;;;;;;4970692;28;21188;-66
2023/07/31 07:41:14;;;;;;;4.80;2.30;;;22.10;95.70;;;;;;4971189;28;20530;-66
2023/07/31 07:43:44;;;;;;;6.80;2.23;;;21.70;94.80;;;;;;4969520;28;20526;-66
2023/07/31 07:46:14;;;;;;;4.70;2.20;;;21.60;95.40;;;;;;4972752;28;20817;-66
2023/07/31 07:48:42;;;;;;;4.73;2.43;;;21.40;96.50;;;;;;4971668;28;20455;-67
2023/07/31 07:51:10;;;;;;;4.20;2.37;;;21.50;95.20;;;;;;4971682;28;20526;-67
2023/07/31 07:53:38;;;;;;;4.90;2.40;;;21.70;95.40;;;;;;4969345;28;20471;-66
2023/07/31 07:56:06;;;;;;;6.93;2.43;;;21.80;95.90;;;;;;4970467;28;20497;-66
2023/07/31 07:58:34;;;;;;;2.67;1.90;;;21.90;95.00;;;;;;4971031;28;20857;-66
2023/07/31 08:01:04;;;;;;;6.93;2.50;;;21.80;94.00;;;;;;4967393;28;20423;-66
2023/07/31 08:03:32;;;;;;;4.40;2.40;;;21.60;94.30;;;;;;4969138;28;20463;-66
2023/07/31 08:06:00;;;;;;;5.93;2.27;;;21.60;95.50;;;;;;4982865;28;20478;-66
2023/07/31 08:08:29;;;;;;;4.17;2.53;;;21.90;94.40;;;;;;4989764;28;20505;-67
2023/07/31 08:10:57;;;;;;;6.37;2.57;;;22.00;93.50;;;;;;4988264;28;20843;-66
2023/07/31 08:13:25;;;;;;;5.20;2.73;;;21.90;93.30;;;;;;4981631;28;20467;-65
2023/07/31 08:15:53;;;;;;;4.00;2.40;;;21.60;94.30;;;;;;4978127;28;20489;-66
2023/07/31 08:18:22;;;;;;;3.03;2.00;;;21.40;95.00;;;;;;4978757;28;20939;-67
2023/07/31 08:20:50;;;;;;;3.33;2.27;;;21.40;94.30;;;;;;4978935;28;20530;-67
2023/07/31 08:23:18;;;;;;;3.77;1.93;;;21.60;94.20;;;;;;4975815;28;20559;-67
2023/07/31 08:25:46;;;;;;;3.23;2.27;;;21.60;93.90;;;;;;4975770;28;20502;-65
2023/07/31 08:28:14;;;;;;;3.70;3.00;;;21.60;93.40;;;;;;4980056;28;20494;-67
2023/07/31 08:30:42;;;;;;;3.00;2.23;;;21.70;93.40;;;;;;4979393;28;20530;-66
2023/07/31 08:33:10;;;;;;;4.83;2.33;;;21.90;93.10;;;;;;4978025;28;20458;-63
2023/07/31 08:35:40;;;;;;;4.13;2.70;;;21.90;93.50;;;;;;4979326;28;20509;-66
2023/07/31 08:38:08;;;;;;;5.30;2.57;;;22.20;93.30;;;;;;4976828;28;20493;-65
2023/07/31 08:40:38;;;;;;;4.97;1.90;;;22.60;91.40;;;;;;4977732;28;20941;-66
2023/07/31 08:43:06;;;;;;;9.00;3.80;;;22.70;91.10;;;;;;4980006;28;20451;-66
2023/07/31 08:45:34;;;;;;;4.20;2.37;;;22.80;90.80;;;;;;4984140;28;20889;-67
2023/07/31 08:48:02;;;;;;;3.50;2.20;;;22.90;90.20;;;;;;4982289;28;20438;-63
2023/07/31 08:50:31;;;;;;;4.43;2.50;;;23.00;90.40;;;;;;4989970;28;21094;-65
2023/07/31 08:53:00;;;;;;;5.80;2.70;;;23.10;91.30;;;;;;4999238;28;20494;-65
2023/07/31 08:55:29;;;;;;;7.30;2.70;;;23.30;90.30;;;;;;4988771;28;20510;-64
2023/07/31 08:57:58;;;;;;;3.47;2.60;;;23.30;90.20;;;;;;4987818;28;21007;-65
2023/07/31 09:00:27;;;;;;;2.93;2.07;;;22.80;89.30;;;;;;4992495;28;20490;-64
2023/07/31 09:03:00;;;;;;;5.13;2.63;;;22.60;91.20;;;;;;4988637;28;20510;-65
2023/07/31 09:05:30;;;;;;;5.97;2.63;;;22.70;90.00;;;;;;4978437;28;20459;-65
2023/07/31 09:08:03;;;;;;;2.80;2.23;;;22.80;90.20;;;;;;4979690;28;21008;-64
2023/07/31 09:10:31;;;;;;;5.00;2.53;;;22.80;88.90;;;;;;4982719;28;20447;-64
2023/07/31 09:12:59;;;;;;;5.83;2.93;;;22.60;86.90;;;;;;4990746;28;20489;-64
2023/07/31 09:15:28;;;;;;;3.23;2.10;;;22.30;87.30;;;;;;4990208;28;20537;-64
2023/07/31 09:18:06;;;;;;;4.67;2.60;;;22.40;89.10;;;;;;4993009;28;20481;-64
2023/07/31 09:20:35;;;;;;;3.40;2.60;;;22.70;88.50;;;;;;4992258;28;20550;-64
2023/07/31 09:23:09;;;;;;;3.60;2.77;;;22.70;88.60;;;;;;4991459;28;21141;-65
2023/07/31 09:25:38;;;;;;;3.07;2.40;;;22.80;88.00;;;;;;4992512;28;20446;-64
2023/07/31 09:28:08;;;;;;;3.67;2.53;;;22.70;87.60;;;;;;4985845;28;20856;-65
2023/07/31 09:30:47;;;;;;;3.43;2.50;;;22.90;87.90;;;;;;4987855;28;20822;-65
2023/07/31 09:33:16;;;;;;;4.57;2.83;;;23.50;87.10;;;;;;4981775;28;20463;-64
2023/07/31 09:35:45;;;;;;;4.80;2.73;;;23.90;87.70;;;;;;4980759;28;20546;-66
2023/07/31 09:38:15;;;;;;;3.73;2.40;;;24.20;84.50;;;;;;4982706;28;20470;-65
2023/07/31 09:40:45;;;;;;;5.37;2.90;;;24.20;82.00;;;;;;4981851;28;20942;-61
2023/07/31 09:43:14;;;;;;;5.93;3.30;;;23.70;82.30;;;;;;4980868;28;20594;-57
2023/07/31 09:45:44;;;;;;;3.30;2.63;;;23.50;84.80;;;;;;4979527;28;20466;-60
2023/07/31 09:48:13;;;;;;;6.40;3.27;;;23.40;84.60;;;;;;4984225;28;20447;-63
2023/07/31 09:50:43;;;;;;;3.50;2.73;;;23.30;85.10;;;;;;4980381;28;20439;-63
2023/07/31 09:53:11;;;;;;;5.27;2.30;;;23.00;84.50;;;;;;4980512;28;20536;-59
2023/07/31 09:55:42;;;;;;;3.43;2.50;;;23.10;87.80;;;;;;4982291;28;20525;-61
2023/07/31 09:58:12;;;;;;;4.93;2.70;;;23.50;87.30;;;;;;4978010;28;20989;-58
2023/07/31 10:00:40;;;;;;;5.57;3.00;;;23.90;86.00;;;;;;4983187;28;20851;-58
2023/07/31 10:03:11;;;;;;;4.73;2.40;;;24.20;81.10;;;;;;4977495;28;20811;-64
2023/07/31 10:05:43;;;;;;;4.20;2.43;;;24.20;81.10;;;;;;4978018;28;20445;-65
2023/07/31 10:08:14;;;;;;;8.20;3.40;;;24.40;82.40;;;;;;4981000;28;20542;-67
2023/07/31 10:10:45;;;;;;;4.20;2.90;;;24.60;83.00;;;;;;4977553;28;20795;-67
2023/07/31 10:13:14;;;;;;;3.10;2.30;;;24.40;81.30;;;;;;4978961;28;20495;-66
2023/07/31 10:15:43;;;;;;;8.07;2.80;;;24.30;80.70;;;;;;4983389;28;20597;-66
2023/07/31 10:18:13;;;;;;;5.40;3.03;;;24.40;78.70;;;;;;4979832;28;20480;-66
2023/07/31 10:20:42;;;;;;;3.37;2.83;;;24.60;77.70;;;;;;4977325;28;21039;-67
2023/07/31 10:23:10;;;;;;;4.53;2.77;;;24.50;79.70;;;;;;4978568;28;20472;-67
2023/07/31 10:25:39;;;;;;;4.70;2.40;;;24.60;77.90;;;;;;4977461;28;20889;-67
2023/07/31 10:28:10;;;;;;;5.63;2.93;;;24.90;78.80;;;;;;4980750;28;20518;-68
2023/07/31 10:30:40;;;;;;;3.90;2.40;;;25.00;76.90;;;;;;4978427;28;20873;-67
2023/07/31 10:33:09;;;;;;;7.10;3.10;;;25.00;77.50;;;;;;4977449;28;20466;-66
2023/07/31 10:35:37;;;;;;;7.43;2.83;;;24.80;75.30;;;;;;4979485;28;20443;-67
2023/07/31 10:38:11;;;;;;;4.30;2.30;;;24.60;77.30;;;;;;4978393;28;20478;-67
2023/07/31 10:40:40;;;;;;;5.33;2.53;;;24.10;75.40;;;;;;4979654;28;21013;-66
2023/07/31 10:43:11;;;;;;;4.23;3.17;;;23.90;76.90;;;;;;4977546;28;20464;-66
2023/07/31 10:45:41;;;;;;;3.60;3.23;;;23.90;78.70;;;;;;4977967;28;20443;-67
2023/07/31 10:48:14;;;;;;;5.20;2.43;;;23.70;78.40;;;;;;4978651;28;20531;-66
2023/07/31 10:50:49;;;;;;;3.70;3.00;;;23.40;78.80;;;;;;4977288;28;20834;-67
2023/07/31 10:53:24;;;;;;;4.50;2.73;;;23.70;78.80;;;;;;4976524;28;20462;-67
2023/07/31 10:55:53;;;;;;;5.70;2.83;;;23.90;82.00;;;;;;4978138;28;20442;-65
2023/07/31 10:58:23;;;;;;;7.17;2.57;;;24.10;75.80;;;;;;4978299;28;20482;-66
2023/07/31 11:00:55;;;;;;;3.60;2.33;;;24.00;75.40;;;;;;4978524;28;21044;-67
2023/07/31 11:03:27;;;;;;;3.40;2.70;;;23.60;77.30;;;;;;4978437;28;21821;-64
2023/07/31 11:06:03;;;;;;;3.87;3.10;;;24.20;76.40;;;;;;4977516;28;20448;-65
2023/07/31 11:08:33;;;;;;;4.80;2.63;;;25.10;80.10;;;;;;4981411;28;20439;-68
2023/07/31 11:11:09;;;;;;;5.57;3.10;;;26.20;72.60;;;;;;4980020;28;20431;-67
2023/07/31 11:13:49;;;;;;;3.60;2.80;;;26.70;68.40;;;;;;4977486;28;20471;-67
2023/07/31 11:16:18;;;;;;;5.90;3.40;;;27.50;72.60;;;;;;4978212;28;20971;-70
2023/07/31 11:18:48;;;;;;;4.53;2.97;;;28.50;65.60;;;;;;4978902;28;20580;-69
2023/07/31 11:21:17;;;;;;;4.60;3.10;;;29.10;60.00;;;;;;4979031;28;20798;-65
2023/07/31 11:23:47;;;;;;;3.17;2.67;;;29.20;59.30;;;;;;4977781;28;20470;-66
2023/07/31 11:26:16;;;;;;;4.00;3.30;;;28.90;57.80;;;;;;4976229;28;20463;-67
2023/07/31 11:28:48;;;;;;;4.30;3.07;;;27.30;58.80;;;;;;4969778;28;21036;-65
2023/07/31 11:31:16;;;;;;;4.80;3.30;;;26.30;63.20;;;;;;4982525;28;20470;-64
2023/07/31 11:33:44;;;;;;;4.47;3.00;;;25.90;64.40;;;;;;4988136;28;20906;-64
2023/07/31 11:36:16;;;;;;;4.40;3.10;;;25.50;65.60;;;;;;4988682;28;21024;-64
2023/07/31 11:38:44;;;;;;;4.27;3.13;;;25.30;65.70;;;;;;4989316;28;20529;-65
2023/07/31 11:41:15;;;;;;;4.57;2.90;;;25.00;68.10;;;;;;4988012;28;20490;-66
2023/07/31 11:43:46;;;;;;;4.90;2.90;;;25.10;70.00;;;;;;4990028;28;21004;-66
2023/07/31 11:46:14;;;;;;;5.20;3.30;;;25.00;68.80;;;;;;4988133;28;20875;-64
2023/07/31 11:48:43;;;;;;;2.93;2.63;;;24.80;70.90;;;;;;4981717;28;20956;-64
2023/07/31 11:51:13;;;;;;;4.37;2.70;;;24.90;72.70;;;;;;4978163;28;21188;-63
2023/07/31 11:53:43;;;;;;;4.73;2.90;;;24.90;70.00;;;;;;4977040;28;20811;-64
2023/07/31 11:56:14;;;;;;;4.50;3.37;;;24.80;70.40;;;;;;4980140;28;20438;-63
2023/07/31 11:58:45;;;;;;;5.90;3.07;;;25.20;71.80;;;;;;4974575;28;21193;-65
2023/07/31 12:01:15;;;;;;;3.60;3.00;;;25.60;70.50;;;;;;4972709;28;20521;-63
2023/07/31 12:03:46;;;;;;;6.53;3.67;;;25.70;69.80;;;;;;4989169;28;20823;-64
2023/07/31 12:06:14;;;;;;;4.90;3.23;;;25.80;69.60;;;;;;4981561;28;20452;-63
2023/07/31 12:08:42;;;;;;;6.20;3.30;;;25.70;68.60;;;;;;4979105;28;20443;-64
2023/07/31 12:11:10;;;;;;;4.60;2.87;;;26.10;70.50;;;;;;4979054;28;20813;-62
2023/07/31 12:13:38;;;;;;;4.33;3.23;;;26.50;67.10;;;;;;4985065;28;20489;-65
2023/07/31 12:16:08;;;;;;;4.90;3.10;;;26.30;67.80;;;;;;4992896;28;20438;-65
2023/07/31 12:18:38;;;;;;;3.53;2.97;;;26.30;66.40;;;;;;4982715;28;20977;-64
2023/07/31 12:21:08;;;;;;;4.50;3.00;;;26.30;67.00;;;;;;4983768;28;20466;-64
2023/07/31 12:23:38;;;;;;;5.17;3.00;;;26.00;67.80;;;;;;4980636;28;20885;-65
2023/07/31 12:26:08;;;;;;;5.80;3.80;;;25.60;70.10;;;;;;4990658;28;20438;-65
2023/07/31 12:28:37;;;;;;;4.10;3.07;;;25.50;72.00;;;;;;4988138;28;20924;-64
2023/07/31 12:31:09;;;;;;;4.60;3.00;;;25.20;67.10;;;;;;4992535;28;20966;-65
2023/07/31 12:33:39;;;;;;;9.00;3.33;;;25.10;69.30;;;;;;4991763;28;20520;-64
2023/07/31 12:36:10;;;;;;;5.50;2.77;;;25.40;72.30;;;;;;4993337;28;20522;-65
2023/07/31 12:38:38;;;;;;;4.33;3.27;;;26.10;70.80;;;;;;4987746;28;20474;-64
2023/07/31 12:41:07;;;;;;;4.33;2.77;;;26.70;69.00;;;;;;4983451;28;20436;-64
2023/07/31 12:43:35;;;;;;;5.87;3.13;;;26.80;64.60;;;;;;4980966;28;20474;-66
2023/07/31 12:46:04;;;;;;;6.47;3.17;;;26.80;65.40;;;;;;4983527;28;20439;-66
2023/07/31 12:48:33;;;;;;;4.73;3.20;;;26.40;64.90;;;;;;4983610;28;20831;-65
2023/07/31 12:51:02;;;;;;;4.33;3.63;;;25.80;66.20;;;;;;4982955;28;21025;-65
2023/07/31 12:53:30;;;;;;;5.70;3.23;;;25.50;69.60;;;;;;4980875;28;20481;-64
2023/07/31 12:55:58;;;;;;;4.30;3.40;;;25.50;68.90;;;;;;4984612;28;20440;-65
2023/07/31 12:58:26;;;;;;;6.00;3.40;;;25.50;67.20;;;;;;4982759;28;20474;-65